sensor_id;sensor_type;location;lat;lon;timestamp;pressure;altitude;pressure_sealevel;temperature;humidity
6528;BME280;3297;42.664;23.256;2022-08-11T00:02:35;50393.34;;;-139.84;75.89
6528;BME280;3297;42.664;23.256;2022-08-11T00:05:07;50397.25;;;-139.84;76.13
6528;BME280;3297;42.664;23.256;2022-08-11T00:07:43;50370.03;;;-139.84;76.04
6528;BME280;3297;42.664;23.256;2022-08-11T00:10:14;50416.69;;;-139.84;76.43
6528;BME280;3297;42.664;23.256;2022-08-11T00:12:42;50371.97;;;-139.84;76.26
6528;BME280;3297;42.664;23.256;2022-08-11T00:15:09;50377.81;;;-139.84;76.51
6528;BME280;3297;42.664;23.256;2022-08-11T00:17:36;50385.59;;;-139.84;77.09
6528;BME280;3297;42.664;23.256;2022-08-11T00:20:08;50408.91;;;-139.84;77.21
6528;BME280;3297;42.664;23.256;2022-08-11T00:22:38;50373.91;;;-139.84;77.17
6528;BME280;3297;42.664;23.256;2022-08-11T00:25:11;50399.19;;;-139.84;77.09
6528;BME280;3297;42.664;23.256;2022-08-11T00:27:39;50370.03;;;-139.84;77.25
6528;BME280;3297;42.664;23.256;2022-08-11T00:30:06;50405.03;;;-139.84;77.55
6528;BME280;3297;42.664;23.256;2022-08-11T00:32:33;50379.75;;;-139.84;77.58
6528;BME280;3297;42.664;23.256;2022-08-11T00:35:00;50399.19;;;-139.84;77.25
6528;BME280;3297;42.664;23.256;2022-08-11T00:37:27;50403.06;;;-139.84;77.48
6528;BME280;3297;42.664;23.256;2022-08-11T00:39:55;50412.78;;;-139.84;77.72
6528;BME280;3297;42.664;23.256;2022-08-11T00:45:34;50397.25;;;-139.84;78.62
6528;BME280;3297;42.664;23.256;2022-08-11T00:48:27;50412.78;;;-139.84;78.30
6528;BME280;3297;42.664;23.256;2022-08-11T00:51:30;50416.69;;;-139.84;78.13
6528;BME280;3297;42.664;23.256;2022-08-11T00:54:30;50401.13;;;-139.84;77.85
6528;BME280;3297;42.664;23.256;2022-08-11T01:00:14;50397.25;;;-139.84;78.01
6528;BME280;3297;42.664;23.256;2022-08-11T01:23:45;50399.19;;;-139.84;78.60
6528;BME280;3297;42.664;23.256;2022-08-11T01:46:48;50381.69;;;-139.84;78.82
6528;BME280;3297;42.664;23.256;2022-08-11T01:49:40;50436.13;;;-139.84;78.95
6528;BME280;3297;42.664;23.256;2022-08-11T01:52:25;50389.47;;;-139.84;79.15
6528;BME280;3297;42.664;23.256;2022-08-11T02:00:34;50377.81;;;-139.84;79.19
6528;BME280;3297;42.664;23.256;2022-08-11T02:03:19;50393.34;;;-139.84;79.21
6528;BME280;3297;42.664;23.256;2022-08-11T02:08:45;50418.63;;;-139.84;79.24
6528;BME280;3297;42.664;23.256;2022-08-11T02:11:25;50424.47;;;-139.84;79.47
6528;BME280;3297;42.664;23.256;2022-08-11T02:26:25;50408.91;;;-139.84;80.11
6528;BME280;3297;42.664;23.256;2022-08-11T02:29:14;50408.91;;;-139.84;79.66
6528;BME280;3297;42.664;23.256;2022-08-11T02:31:58;50424.47;;;-139.84;79.75
6528;BME280;3297;42.664;23.256;2022-08-11T02:48:00;50476.94;;;-139.84;80.21
6528;BME280;3297;42.664;23.256;2022-08-11T02:59:46;50381.69;;;-139.84;80.96
6528;BME280;3297;42.664;23.256;2022-08-11T03:08:23;50418.63;;;-139.84;81.07
6528;BME280;3297;42.664;23.256;2022-08-11T03:11:14;50399.19;;;-139.84;81.16
6528;BME280;3297;42.664;23.256;2022-08-11T03:17:13;50387.53;;;-139.84;81.50
6528;BME280;3297;42.664;23.256;2022-08-11T03:20:02;50403.06;;;-139.84;81.77
6528;BME280;3297;42.664;23.256;2022-08-11T03:22:56;50440.00;;;-139.84;81.78
6528;BME280;3297;42.664;23.256;2022-08-11T03:33:28;50383.63;;;-139.84;82.03
6528;BME280;3297;42.664;23.256;2022-08-11T03:39:19;50424.47;;;-139.84;82.34
6528;BME280;3297;42.664;23.256;2022-08-11T03:45:00;50420.56;;;-139.84;82.99
6528;BME280;3297;42.664;23.256;2022-08-11T03:47:40;50438.06;;;-139.84;82.99
6528;BME280;3297;42.664;23.256;2022-08-11T03:50:11;50375.88;;;-139.84;83.21
6528;BME280;3297;42.664;23.256;2022-08-11T03:53:15;50428.34;;;-139.84;82.96
6528;BME280;3297;42.664;23.256;2022-08-11T04:04:14;50447.78;;;-139.84;82.47
6528;BME280;3297;42.664;23.256;2022-08-11T04:07:13;50447.78;;;-139.84;82.49
6528;BME280;3297;42.664;23.256;2022-08-11T04:15:12;50424.47;;;-139.84;81.99
6528;BME280;3297;42.664;23.256;2022-08-11T04:31:43;50471.09;;;-139.84;80.70
6528;BME280;3297;42.664;23.256;2022-08-11T04:34:35;50463.34;;;-139.84;80.29
6528;BME280;3297;42.664;23.256;2022-08-11T04:43:14;50490.53;;;-139.84;80.13
6528;BME280;3297;42.664;23.256;2022-08-11T04:59:07;50475.00;;;-139.84;74.74
6528;BME280;3297;42.664;23.256;2022-08-11T05:13:03;50537.19;;;-139.84;57.54
6528;BME280;3297;42.664;23.256;2022-08-11T05:15:53;50537.19;;;-139.84;56.57
6528;BME280;3297;42.664;23.256;2022-08-11T05:18:51;50544.97;;;-139.84;56.35
6528;BME280;3297;42.664;23.256;2022-08-11T05:21:41;50488.59;;;-139.84;55.92
6528;BME280;3297;42.664;23.256;2022-08-11T05:24:35;50519.69;;;-139.84;55.30
6528;BME280;3297;42.664;23.256;2022-08-11T05:27:29;50502.19;;;-139.84;55.66
6528;BME280;3297;42.664;23.256;2022-08-11T05:30:14;50552.75;;;-139.84;55.28
6528;BME280;3297;42.664;23.256;2022-08-11T05:33:02;50506.09;;;-139.84;55.24
6528;BME280;3297;42.664;23.256;2022-08-11T05:35:49;50576.06;;;-139.84;55.51
6528;BME280;3297;42.664;23.256;2022-08-11T05:38:24;50525.53;;;-139.84;55.30
6528;BME280;3297;42.664;23.256;2022-08-11T05:41:13;50541.06;;;-139.84;55.90
6528;BME280;3297;42.664;23.256;2022-08-11T05:43:59;50498.31;;;-139.84;56.07
6528;BME280;3297;42.664;23.256;2022-08-11T05:46:44;50529.41;;;-139.84;56.16
6528;BME280;3297;42.664;23.256;2022-08-11T05:49:31;50502.19;;;-139.84;56.12
6528;BME280;3297;42.664;23.256;2022-08-11T05:52:19;50537.19;;;-139.84;56.01
6528;BME280;3297;42.664;23.256;2022-08-11T05:55:05;50544.97;;;-139.84;55.88
6528;BME280;3297;42.664;23.256;2022-08-11T05:57:55;50548.84;;;-139.84;55.30
6528;BME280;3297;42.664;23.256;2022-08-11T06:00:22;50517.75;;;-139.84;54.77
6528;BME280;3297;42.664;23.256;2022-08-11T06:03:00;50517.75;;;-139.84;54.59
6528;BME280;3297;42.664;23.256;2022-08-11T06:05:36;50556.63;;;-139.84;54.01
6528;BME280;3297;42.664;23.256;2022-08-11T06:08:04;50475.00;;;-139.84;53.58
6528;BME280;3297;42.664;23.256;2022-08-11T06:10:40;50504.16;;;-139.84;53.07
6528;BME280;3297;42.664;23.256;2022-08-11T06:13:07;50525.53;;;-139.84;52.17
6528;BME280;3297;42.664;23.256;2022-08-11T06:15:43;50523.59;;;-139.84;51.85
6528;BME280;3297;42.664;23.256;2022-08-11T06:18:10;50544.97;;;-139.84;51.21
6528;BME280;3297;42.664;23.256;2022-08-11T06:20:46;50574.13;;;-139.84;50.24
6528;BME280;3297;42.664;23.256;2022-08-11T06:23:12;50552.75;;;-139.84;49.34
6528;BME280;3297;42.664;23.256;2022-08-11T06:25:39;50568.28;;;-139.84;48.31
6528;BME280;3297;42.664;23.256;2022-08-11T06:28:06;50568.28;;;-139.84;47.97
6528;BME280;3297;42.664;23.256;2022-08-11T06:30:43;50638.25;;;-139.84;47.04
6528;BME280;3297;42.664;23.256;2022-08-11T06:33:13;50574.13;;;-139.84;46.52
6528;BME280;3297;42.664;23.256;2022-08-11T06:41:48;50556.63;;;-139.84;44.56
6528;BME280;3297;42.664;23.256;2022-08-11T06:44:40;50579.94;;;-139.84;44.04
6528;BME280;3297;42.664;23.256;2022-08-11T06:47:10;50570.22;;;-139.84;43.74
6528;BME280;3297;42.664;23.256;2022-08-11T06:49:41;50572.19;;;-139.84;42.91
6528;BME280;3297;42.664;23.256;2022-08-11T06:52:32;50537.19;;;-139.84;42.38
6528;BME280;3297;42.664;23.256;2022-08-11T06:55:08;50562.47;;;-139.84;42.56
6528;BME280;3297;42.664;23.256;2022-08-11T06:57:36;50554.69;;;-139.84;42.43
6528;BME280;3297;42.664;23.256;2022-08-11T07:00:22;50572.19;;;-139.84;41.05
6528;BME280;3297;42.664;23.256;2022-08-11T07:03:05;50576.06;;;-139.84;40.29
6528;BME280;3297;42.664;23.256;2022-08-11T07:05:51;50525.53;;;-139.84;38.29
6528;BME280;3297;42.664;23.256;2022-08-11T07:15:05;50541.06;;;-139.84;38.07
6528;BME280;3297;42.664;23.256;2022-08-11T07:24:16;50581.91;;;-139.84;37.90
6528;BME280;3297;42.664;23.256;2022-08-11T07:27:04;50564.41;;;-139.84;38.54
6528;BME280;3297;42.664;23.256;2022-08-11T07:29:50;50583.84;;;-139.84;37.89
6528;BME280;3297;42.664;23.256;2022-08-11T07:32:23;50517.75;;;-139.84;37.41
6528;BME280;3297;42.664;23.256;2022-08-11T07:34:56;50568.28;;;-139.84;37.22
6528;BME280;3297;42.664;23.256;2022-08-11T07:37:24;50581.91;;;-139.84;37.49
6528;BME280;3297;42.664;23.256;2022-08-11T07:39:52;50550.78;;;-139.84;37.18
6528;BME280;3297;42.664;23.256;2022-08-11T07:42:22;50576.06;;;-139.84;36.68
6528;BME280;3297;42.664;23.256;2022-08-11T07:44:48;50585.78;;;-139.84;36.55
6528;BME280;3297;42.664;23.256;2022-08-11T07:47:34;50572.19;;;-139.84;35.81
6528;BME280;3297;42.664;23.256;2022-08-11T07:50:20;50511.91;;;-139.84;35.83
6528;BME280;3297;42.664;23.256;2022-08-11T07:53:05;50556.63;;;-139.84;36.42
6528;BME280;3297;42.664;23.256;2022-08-11T07:55:31;50552.75;;;-139.84;35.65
6528;BME280;3297;42.664;23.256;2022-08-11T07:57:59;50599.38;;;-139.84;35.68
6528;BME280;3297;42.664;23.256;2022-08-11T08:00:52;50562.47;;;-139.84;34.52
6528;BME280;3297;42.664;23.256;2022-08-11T08:03:38;50558.56;;;-139.84;34.71
6528;BME280;3297;42.664;23.256;2022-08-11T08:06:22;50548.84;;;-139.84;35.10
6528;BME280;3297;42.664;23.256;2022-08-11T08:09:08;50543.03;;;-139.84;34.61
6528;BME280;3297;42.664;23.256;2022-08-11T08:11:52;50564.41;;;-139.84;33.96
6528;BME280;3297;42.664;23.256;2022-08-11T08:14:37;50564.41;;;-139.84;32.86
6528;BME280;3297;42.664;23.256;2022-08-11T08:17:22;50550.78;;;-139.84;32.44
6528;BME280;3297;42.664;23.256;2022-08-11T08:20:11;50568.28;;;-139.84;31.95
6528;BME280;3297;42.664;23.256;2022-08-11T08:22:37;50525.53;;;-139.84;31.30
6528;BME280;3297;42.664;23.256;2022-08-11T08:25:05;50568.28;;;-139.84;31.62
6528;BME280;3297;42.664;23.256;2022-08-11T08:27:33;50568.28;;;-139.84;31.37
6528;BME280;3297;42.664;23.256;2022-08-11T08:30:01;50527.47;;;-139.84;31.04
6528;BME280;3297;42.664;23.256;2022-08-11T08:32:46;50544.97;;;-139.84;30.98
6528;BME280;3297;42.664;23.256;2022-08-11T08:35:11;50566.34;;;-139.84;31.90
6528;BME280;3297;42.664;23.256;2022-08-11T08:37:37;50529.41;;;-139.84;31.92
6528;BME280;3297;42.664;23.256;2022-08-11T08:40:06;50552.75;;;-139.84;31.57
6528;BME280;3297;42.664;23.256;2022-08-11T08:42:37;50515.81;;;-139.84;31.04
6528;BME280;3297;42.664;23.256;2022-08-11T08:45:11;50556.63;;;-139.84;31.45
6528;BME280;3297;42.664;23.256;2022-08-11T08:47:40;50558.56;;;-139.84;31.66
6528;BME280;3297;42.664;23.256;2022-08-11T08:50:12;50521.63;;;-139.84;31.74
6528;BME280;3297;42.664;23.256;2022-08-11T08:52:45;50558.56;;;-139.84;31.82
6528;BME280;3297;42.664;23.256;2022-08-11T08:55:16;50550.78;;;-139.84;31.35
6528;BME280;3297;42.664;23.256;2022-08-11T08:57:44;50548.84;;;-139.84;31.07
6528;BME280;3297;42.664;23.256;2022-08-11T09:00:13;50581.91;;;-139.84;31.30
6528;BME280;3297;42.664;23.256;2022-08-11T09:02:40;50533.31;;;-139.84;30.96
6528;BME280;3297;42.664;23.256;2022-08-11T09:05:07;50535.25;;;-139.84;30.91
6528;BME280;3297;42.664;23.256;2022-08-11T09:07:34;50541.06;;;-139.84;30.57
6528;BME280;3297;42.664;23.256;2022-08-11T09:10:00;50548.84;;;-139.84;31.18
6528;BME280;3297;42.664;23.256;2022-08-11T09:12:31;50506.09;;;-139.84;30.94
6528;BME280;3297;42.664;23.256;2022-08-11T09:14:59;50527.47;;;-139.84;31.08
6528;BME280;3297;42.664;23.256;2022-08-11T09:17:34;50506.09;;;-139.84;31.40
6528;BME280;3297;42.664;23.256;2022-08-11T09:20:10;50537.19;;;-139.84;31.38
6528;BME280;3297;42.664;23.256;2022-08-11T09:22:41;50511.91;;;-139.84;31.76
6528;BME280;3297;42.664;23.256;2022-08-11T09:25:29;50527.47;;;-139.84;32.23
6528;BME280;3297;42.664;23.256;2022-08-11T09:28:16;50496.38;;;-139.84;32.30
6528;BME280;3297;42.664;23.256;2022-08-11T09:30:47;50560.50;;;-139.84;32.35
6528;BME280;3297;42.664;23.256;2022-08-11T09:33:18;50509.97;;;-139.84;31.60
6528;BME280;3297;42.664;23.256;2022-08-11T09:35:46;50564.41;;;-139.84;31.48
6528;BME280;3297;42.664;23.256;2022-08-11T09:38:15;50525.53;;;-139.84;30.38
6528;BME280;3297;42.664;23.256;2022-08-11T09:41:02;50502.19;;;-139.84;30.14
6528;BME280;3297;42.664;23.256;2022-08-11T09:43:30;50556.63;;;-139.84;31.03
6528;BME280;3297;42.664;23.256;2022-08-11T09:46:16;50548.84;;;-139.84;31.14
6528;BME280;3297;42.664;23.256;2022-08-11T09:48:48;50541.06;;;-139.84;31.49
6528;BME280;3297;42.664;23.256;2022-08-11T09:51:14;50513.88;;;-139.84;31.34
6528;BME280;3297;42.664;23.256;2022-08-11T09:53:42;50498.31;;;-139.84;31.46
6528;BME280;3297;42.664;23.256;2022-08-11T09:56:12;50533.31;;;-139.84;32.70
6528;BME280;3297;42.664;23.256;2022-08-11T09:58:58;50529.41;;;-139.84;32.82
6528;BME280;3297;42.664;23.256;2022-08-11T10:01:28;50498.31;;;-139.84;32.72
6528;BME280;3297;42.664;23.256;2022-08-11T10:04:19;50490.53;;;-139.84;32.64
6528;BME280;3297;42.664;23.256;2022-08-11T10:06:52;50535.25;;;-139.84;32.76
6528;BME280;3297;42.664;23.256;2022-08-11T10:09:38;50541.06;;;-139.84;31.20
6528;BME280;3297;42.664;23.256;2022-08-11T10:12:21;50478.88;;;-139.84;31.90
6528;BME280;3297;42.664;23.256;2022-08-11T10:14:53;50521.63;;;-139.84;31.62
6528;BME280;3297;42.664;23.256;2022-08-11T10:17:42;50525.53;;;-139.84;32.04
6528;BME280;3297;42.664;23.256;2022-08-11T10:20:34;50490.53;;;-139.84;31.74
6528;BME280;3297;42.664;23.256;2022-08-11T10:23:01;50537.19;;;-139.84;30.78
6528;BME280;3297;42.664;23.256;2022-08-11T10:25:46;50478.88;;;-139.84;30.97
6528;BME280;3297;42.664;23.256;2022-08-11T10:28:33;50521.63;;;-139.84;30.83
6528;BME280;3297;42.664;23.256;2022-08-11T10:31:00;50471.09;;;-139.84;30.72
6528;BME280;3297;42.664;23.256;2022-08-11T10:33:45;50525.53;;;-139.84;31.79
6528;BME280;3297;42.664;23.256;2022-08-11T10:36:28;50525.53;;;-139.84;31.25
6528;BME280;3297;42.664;23.256;2022-08-11T10:38:56;50537.19;;;-139.84;31.18
6528;BME280;3297;42.664;23.256;2022-08-11T10:41:24;50473.03;;;-139.84;31.20
6528;BME280;3297;42.664;23.256;2022-08-11T10:44:09;50506.09;;;-139.84;31.17
6528;BME280;3297;42.664;23.256;2022-08-11T10:46:37;50543.03;;;-139.84;31.04
6528;BME280;3297;42.664;23.256;2022-08-11T10:49:22;50515.81;;;-139.84;31.03
6528;BME280;3297;42.664;23.256;2022-08-11T10:51:50;50509.97;;;-139.84;30.04
6528;BME280;3297;42.664;23.256;2022-08-11T10:54:35;50502.19;;;-139.84;29.99
6528;BME280;3297;42.664;23.256;2022-08-11T10:57:19;50492.47;;;-139.84;29.24
6528;BME280;3297;42.664;23.256;2022-08-11T11:00:05;50482.78;;;-139.84;29.85
6528;BME280;3297;42.664;23.256;2022-08-11T11:02:32;50498.31;;;-139.84;30.18
6528;BME280;3297;42.664;23.256;2022-08-11T11:05:44;50508.03;;;-139.84;30.14
6528;BME280;3297;42.664;23.256;2022-08-11T11:08:13;50531.34;;;-139.84;30.19
6528;BME280;3297;42.664;23.256;2022-08-11T11:10:58;50509.97;;;-139.84;30.14
6528;BME280;3297;42.664;23.256;2022-08-11T11:13:26;50484.72;;;-139.84;30.30
6528;BME280;3297;42.664;23.256;2022-08-11T11:16:11;50471.09;;;-139.84;31.01
6528;BME280;3297;42.664;23.256;2022-08-11T11:19:10;50482.78;;;-139.84;30.33
6528;BME280;3297;42.664;23.256;2022-08-11T11:21:38;50533.31;;;-139.84;29.81
6528;BME280;3297;42.664;23.256;2022-08-11T11:24:15;50486.66;;;-139.84;30.38
6528;BME280;3297;42.664;23.256;2022-08-11T11:26:57;50490.53;;;-139.84;30.63
6528;BME280;3297;42.664;23.256;2022-08-11T11:29:48;50502.19;;;-139.84;31.13
6528;BME280;3297;42.664;23.256;2022-08-11T11:32:23;50482.78;;;-139.84;30.87
6528;BME280;3297;42.664;23.256;2022-08-11T11:37:45;50521.63;;;-139.84;30.39
6528;BME280;3297;42.664;23.256;2022-08-11T11:40:15;50494.44;;;-139.84;30.52
6528;BME280;3297;42.664;23.256;2022-08-11T11:42:44;50475.00;;;-139.84;30.33
6528;BME280;3297;42.664;23.256;2022-08-11T11:45:14;50461.38;;;-139.84;30.93
6528;BME280;3297;42.664;23.256;2022-08-11T11:47:41;50478.88;;;-139.84;30.74
6528;BME280;3297;42.664;23.256;2022-08-11T11:50:08;50482.78;;;-139.84;30.11
6528;BME280;3297;42.664;23.256;2022-08-11T11:52:37;50490.53;;;-139.84;31.17
6528;BME280;3297;42.664;23.256;2022-08-11T11:55:04;50482.78;;;-139.84;29.92
6528;BME280;3297;42.664;23.256;2022-08-11T11:57:30;50467.22;;;-139.84;30.05
6528;BME280;3297;42.664;23.256;2022-08-11T12:00:16;50475.00;;;-139.84;30.71
6528;BME280;3297;42.664;23.256;2022-08-11T12:03:04;50517.75;;;-139.84;31.24
6528;BME280;3297;42.664;23.256;2022-08-11T12:05:33;50513.88;;;-139.84;31.57
6528;BME280;3297;42.664;23.256;2022-08-11T12:08:01;50467.22;;;-139.84;31.16
6528;BME280;3297;42.664;23.256;2022-08-11T12:10:53;50498.31;;;-139.84;30.59
6528;BME280;3297;42.664;23.256;2022-08-11T12:13:51;50508.03;;;-139.84;30.58
6528;BME280;3297;42.664;23.256;2022-08-11T12:16:19;50513.88;;;-139.84;30.63
6528;BME280;3297;42.664;23.256;2022-08-11T12:18:49;50475.00;;;-139.84;30.96
6528;BME280;3297;42.664;23.256;2022-08-11T12:21:16;50467.22;;;-139.84;31.10
6528;BME280;3297;42.664;23.256;2022-08-11T12:23:44;50486.66;;;-139.84;30.96
6528;BME280;3297;42.664;23.256;2022-08-11T12:26:30;50506.09;;;-139.84;30.77
6528;BME280;3297;42.664;23.256;2022-08-11T12:29:05;50494.44;;;-139.84;31.09
6528;BME280;3297;42.664;23.256;2022-08-11T12:31:33;50467.22;;;-139.84;31.63
6528;BME280;3297;42.664;23.256;2022-08-11T12:34:07;50475.00;;;-139.84;31.92
6528;BME280;3297;42.664;23.256;2022-08-11T12:36:49;50473.03;;;-139.84;31.71
6528;BME280;3297;42.664;23.256;2022-08-11T12:39:19;50471.09;;;-139.84;31.86
6528;BME280;3297;42.664;23.256;2022-08-11T12:42:06;50473.03;;;-139.84;31.26
6528;BME280;3297;42.664;23.256;2022-08-11T12:44:52;50515.81;;;-139.84;31.18
6528;BME280;3297;42.664;23.256;2022-08-11T12:47:38;50488.59;;;-139.84;31.01
6528;BME280;3297;42.664;23.256;2022-08-11T12:50:24;50451.66;;;-139.84;32.22
6528;BME280;3297;42.664;23.256;2022-08-11T12:53:10;50455.56;;;-139.84;33.32
6528;BME280;3297;42.664;23.256;2022-08-11T12:55:37;50504.16;;;-139.84;33.32
6528;BME280;3297;42.664;23.256;2022-08-11T12:58:24;50494.44;;;-139.84;33.50
6528;BME280;3297;42.664;23.256;2022-08-11T13:00:51;50447.78;;;-139.84;34.00
6528;BME280;3297;42.664;23.256;2022-08-11T13:03:37;50455.56;;;-139.84;34.20
6528;BME280;3297;42.664;23.256;2022-08-11T13:06:23;50455.56;;;-139.84;34.56
6528;BME280;3297;42.664;23.256;2022-08-11T13:08:49;50447.78;;;-139.84;34.45
6528;BME280;3297;42.664;23.256;2022-08-11T13:11:15;50475.00;;;-139.84;34.70
6528;BME280;3297;42.664;23.256;2022-08-11T13:14:02;50463.34;;;-139.84;35.24
6528;BME280;3297;42.664;23.256;2022-08-11T13:16:30;50455.56;;;-139.84;35.45
6528;BME280;3297;42.664;23.256;2022-08-11T13:19:16;50513.88;;;-139.84;35.97
6528;BME280;3297;42.664;23.256;2022-08-11T13:21:43;50436.13;;;-139.84;35.51
6528;BME280;3297;42.664;23.256;2022-08-11T13:24:10;50451.66;;;-139.84;36.18
6528;BME280;3297;42.664;23.256;2022-08-11T13:26:36;50451.66;;;-139.84;36.31
6528;BME280;3297;42.664;23.256;2022-08-11T13:29:03;50471.09;;;-139.84;36.37
6528;BME280;3297;42.664;23.256;2022-08-11T13:31:29;50502.19;;;-139.84;36.40
6528;BME280;3297;42.664;23.256;2022-08-11T13:33:55;50463.34;;;-139.84;36.52
6528;BME280;3297;42.664;23.256;2022-08-11T13:36:22;50451.66;;;-139.84;36.38
6528;BME280;3297;42.664;23.256;2022-08-11T13:38:52;50432.22;;;-139.84;36.44
6528;BME280;3297;42.664;23.256;2022-08-11T13:41:18;50440.00;;;-139.84;36.07
6528;BME280;3297;42.664;23.256;2022-08-11T13:44:05;50467.22;;;-139.84;36.30
6528;BME280;3297;42.664;23.256;2022-08-11T13:46:31;50434.19;;;-139.84;36.80
6528;BME280;3297;42.664;23.256;2022-08-11T13:48:57;50428.34;;;-139.84;36.64
6528;BME280;3297;42.664;23.256;2022-08-11T13:51:24;50447.78;;;-139.84;36.98
6528;BME280;3297;42.664;23.256;2022-08-11T13:56:27;50434.19;;;-139.84;37.19
6528;BME280;3297;42.664;23.256;2022-08-11T13:58:54;50455.56;;;-139.84;37.31
6528;BME280;3297;42.664;23.256;2022-08-11T14:01:22;50461.38;;;-139.84;37.28
6528;BME280;3297;42.664;23.256;2022-08-11T14:03:49;50426.41;;;-139.84;36.96
6528;BME280;3297;42.664;23.256;2022-08-11T14:06:17;50453.59;;;-139.84;36.45
6528;BME280;3297;42.664;23.256;2022-08-11T14:08:44;50438.06;;;-139.84;37.18
6528;BME280;3297;42.664;23.256;2022-08-11T14:11:12;50451.66;;;-139.84;37.85
6528;BME280;3297;42.664;23.256;2022-08-11T14:13:59;50471.09;;;-139.84;38.08
6528;BME280;3297;42.664;23.256;2022-08-11T14:16:30;50405.03;;;-139.84;37.60
6528;BME280;3297;42.664;23.256;2022-08-11T14:19:00;50475.00;;;-139.84;36.63
6528;BME280;3297;42.664;23.256;2022-08-11T14:21:27;50441.94;;;-139.84;36.29
6528;BME280;3297;42.664;23.256;2022-08-11T14:24:15;50440.00;;;-139.84;36.06
6528;BME280;3297;42.664;23.256;2022-08-11T14:26:42;50414.75;;;-139.84;36.05
6528;BME280;3297;42.664;23.256;2022-08-11T14:29:25;50469.16;;;-139.84;36.31
6528;BME280;3297;42.664;23.256;2022-08-11T14:32:01;50471.09;;;-139.84;36.49
6528;BME280;3297;42.664;23.256;2022-08-11T14:34:29;50432.22;;;-139.84;35.88
6528;BME280;3297;42.664;23.256;2022-08-11T14:36:58;50455.56;;;-139.84;36.05
6528;BME280;3297;42.664;23.256;2022-08-11T14:39:26;50436.13;;;-139.84;35.98
6528;BME280;3297;42.664;23.256;2022-08-11T14:42:01;50428.34;;;-139.84;36.42
6528;BME280;3297;42.664;23.256;2022-08-11T14:45:02;50443.91;;;-139.84;36.12
6528;BME280;3297;42.664;23.256;2022-08-11T14:47:52;50432.22;;;-139.84;36.13
6528;BME280;3297;42.664;23.256;2022-08-11T14:50:24;50451.66;;;-139.84;35.67
6528;BME280;3297;42.664;23.256;2022-08-11T14:52:55;50408.91;;;-139.84;35.57
6528;BME280;3297;42.664;23.256;2022-08-11T14:55:25;50443.91;;;-139.84;35.75
6528;BME280;3297;42.664;23.256;2022-08-11T14:58:13;50447.78;;;-139.84;35.90
6528;BME280;3297;42.664;23.256;2022-08-11T15:00:41;50424.47;;;-139.84;36.89
6528;BME280;3297;42.664;23.256;2022-08-11T15:03:09;50436.13;;;-139.84;36.84
6528;BME280;3297;42.664;23.256;2022-08-11T15:05:43;50418.63;;;-139.84;37.14
6528;BME280;3297;42.664;23.256;2022-08-11T15:08:12;50428.34;;;-139.84;37.46
6528;BME280;3297;42.664;23.256;2022-08-11T15:10:38;50465.28;;;-139.84;37.66
6528;BME280;3297;42.664;23.256;2022-08-11T15:13:04;50443.91;;;-139.84;38.01
6528;BME280;3297;42.664;23.256;2022-08-11T15:15:30;50443.91;;;-139.84;37.81
6528;BME280;3297;42.664;23.256;2022-08-11T15:18:17;50410.84;;;-139.84;37.66
6528;BME280;3297;42.664;23.256;2022-08-11T15:20:44;50416.69;;;-139.84;38.00
6528;BME280;3297;42.664;23.256;2022-08-11T15:23:46;50412.78;;;-139.84;38.63
6528;BME280;3297;42.664;23.256;2022-08-11T15:26:37;50420.56;;;-139.84;38.14
6528;BME280;3297;42.664;23.256;2022-08-11T15:29:27;50420.56;;;-139.84;38.13
6528;BME280;3297;42.664;23.256;2022-08-11T15:32:13;50405.03;;;-139.84;39.00
6528;BME280;3297;42.664;23.256;2022-08-11T15:34:48;50420.56;;;-139.84;39.11
6528;BME280;3297;42.664;23.256;2022-08-11T15:37:35;50424.47;;;-139.84;39.44
6528;BME280;3297;42.664;23.256;2022-08-11T15:40:09;50405.03;;;-139.84;39.36
6528;BME280;3297;42.664;23.256;2022-08-11T15:43:13;50420.56;;;-139.84;39.46
6528;BME280;3297;42.664;23.256;2022-08-11T15:46:02;50451.66;;;-139.84;39.04
6528;BME280;3297;42.664;23.256;2022-08-11T15:51:05;50447.78;;;-139.84;39.54
6528;BME280;3297;42.664;23.256;2022-08-11T15:53:47;50432.22;;;-139.84;39.28
6528;BME280;3297;42.664;23.256;2022-08-11T15:56:15;50436.13;;;-139.84;39.47
6528;BME280;3297;42.664;23.256;2022-08-11T15:58:45;50459.44;;;-139.84;39.08
6528;BME280;3297;42.664;23.256;2022-08-11T16:01:31;50443.91;;;-139.84;39.29
6528;BME280;3297;42.664;23.256;2022-08-11T16:04:23;50430.28;;;-139.84;39.30
6528;BME280;3297;42.664;23.256;2022-08-11T16:07:00;50401.13;;;-139.84;39.06
6528;BME280;3297;42.664;23.256;2022-08-11T16:12:00;50447.78;;;-139.84;38.53
6528;BME280;3297;42.664;23.256;2022-08-11T16:14:27;50399.19;;;-139.84;38.77
6528;BME280;3297;42.664;23.256;2022-08-11T16:17:16;50405.03;;;-139.84;39.28
6528;BME280;3297;42.664;23.256;2022-08-11T16:19:44;50428.34;;;-139.84;39.39
6528;BME280;3297;42.664;23.256;2022-08-11T16:22:13;50383.63;;;-139.84;38.92
6528;BME280;3297;42.664;23.256;2022-08-11T16:24:44;50432.22;;;-139.84;38.54
6528;BME280;3297;42.664;23.256;2022-08-11T16:27:11;50443.91;;;-139.84;38.62
6528;BME280;3297;42.664;23.256;2022-08-11T16:29:44;50432.22;;;-139.84;38.48
6528;BME280;3297;42.664;23.256;2022-08-11T16:32:16;50416.69;;;-139.84;38.89
6528;BME280;3297;42.664;23.256;2022-08-11T16:35:05;50405.03;;;-139.84;38.73
6528;BME280;3297;42.664;23.256;2022-08-11T16:37:51;50432.22;;;-139.84;39.11
6528;BME280;3297;42.664;23.256;2022-08-11T16:40:38;50420.56;;;-139.84;38.62
6528;BME280;3297;42.664;23.256;2022-08-11T16:43:06;50455.56;;;-139.84;38.43
6528;BME280;3297;42.664;23.256;2022-08-11T16:45:52;50420.56;;;-139.84;38.43
6528;BME280;3297;42.664;23.256;2022-08-11T16:48:40;50451.66;;;-139.84;38.62
6528;BME280;3297;42.664;23.256;2022-08-11T16:51:10;50397.25;;;-139.84;38.36
6528;BME280;3297;42.664;23.256;2022-08-11T16:53:36;50440.00;;;-139.84;38.43
6528;BME280;3297;42.664;23.256;2022-08-11T16:56:05;50440.00;;;-139.84;38.57
6528;BME280;3297;42.664;23.256;2022-08-11T16:58:34;50393.34;;;-139.84;38.66
6528;BME280;3297;42.664;23.256;2022-08-11T17:01:22;50430.28;;;-139.84;38.28
6528;BME280;3297;42.664;23.256;2022-08-11T17:03:58;50440.00;;;-139.84;38.61